METAR AND TAF INFORMATION
METAR FOR GCTS
ADDS - METARS form results

(0709 UTC 13 September 2022)
Data provider http://aviationweather.gov/metar/data/
 
METAR text: GCTS 130700Z 27003KT 9999 SCT015 BKN025 23/20 Q1014 NOSIG
Conditions at: GCTS (TENERIFE SUR/REI, ES) observed 0700 UTC 13 September 2022
Temperature: 23.0°C (73°F)
Dewpoint: 20.0°C (68°F) [RH = 83%]
Pressure (altimeter): 29.94 inches Hg (1014.0 mb)
Winds: from the W (270 degrees) at 3 MPH (3 knots; 1.5 m/s)
Visibility: 6 or more miles (10+ km)
Ceiling: 2500 feet AGL
Clouds: scattered clouds at 1500 feet AGL
broken clouds at 2500 feet AGL
Weather: no significant weather observed at this time

METAR text: GCTS 130630Z 24004KT 210V280 9999 -DZ SCT013 BKN020 23/21 Q1014 NOSIG
Conditions at: GCTS (TENERIFE SUR/REI, ES) observed 0630 UTC 13 September 2022
Temperature: 23.0°C (73°F)
Dewpoint: 21.0°C (70°F) [RH = 89%]
Pressure (altimeter): 29.94 inches Hg (1014.0 mb)
Winds: from the WSW (240 degrees) at 5 MPH (4 knots; 2.1 m/s)
Visibility: 6 or more miles (10+ km)
Ceiling: 2000 feet AGL
Clouds: scattered clouds at 1300 feet AGL
broken clouds at 2000 feet AGL
Weather: -DZ  (light drizzle)

Forecast for: GCTS (TENERIFE SUR/REI, ES)
Text: TAF GCTS 130200Z 1303/1403 20005KT 9999 SCT020 TX28/1314Z TN21/1306Z
Forecast period: 0300 UTC 13 September 2022 to 0300 UTC 14 September 2022
Forecast type: FROM: standard forecast or significant change
Winds: from the SSW (200 degrees) at 6 MPH (5 knots; 2.6 m/s)
Visibility: 6 or more miles (10+ km)
Ceiling: at least 12,000 feet AGL
Clouds: scattered clouds at 2000 feet AGL
Weather: no significant weather forecast for this period

 AIRPORT MAP

 RUNWAY INFORMATION
Runway 08 Runway length 10499 ft Runway width 148 ft
Runway elevation 187 ft Runway displaced threshold 0 ft Runway heading 69
Runway 26 Runway length 10499 ft Runway width 148 ft
Runway elevation 209 ft Runway displaced threshold 0 ft Runway heading 249

 AIRPORT FREQUENCIES
Type APP Name APP Frequency 120.3 MHZ
Type ATIS Name ATIS Frequency 118.675 MHZ
Type GND Name GND Frequency 121.9 MHZ
Type TWR Name TWR Frequency 119 MHZ

 AIRPORT NEAR NAVIGATION AIDS
Type NDB Name Tenerife Sur Frequency 317 KHZ
Type VOR-DME Name Tenerife Sur Frequency 116400 KHZ